Аэропорт: Платов. Ростов-на-Дону

ICAO: URRP

METAR:
2019-09-21 16:00:00
URRP 211600Z 28004G09MPS 240V330 9999 -SHRA SCT034CB 10/06 Q1017 R23/290050 TEMPO 2000 TSRAGR SCT004 BKN020CB RMK QFE755/1007
METAR:
2019-09-21 13:55:00
TAF URRP 211355Z 2115/2215 29003G09MPS 9999 SCT011 SCT020CB TX16/2212Z TN07/2202Z TEMPO 2115/2204 27006G13MPS 3100 -TSRA SCT005 SCT020CB FM220400 28010G15MPS 3100 -SHRA BR SCT011 SCT020CB TEMPO 2204/2215 26013G20MPS